createdAt,value
2023-09-08T00:00:59.579Z,6.82
2023-09-08T00:03:26.772Z,6.88
2023-09-08T00:05:55.344Z,7.40
2023-09-08T00:08:23.617Z,6.93
2023-09-08T00:10:50.923Z,7.47
2023-09-08T00:13:18.052Z,6.55
2023-09-08T00:15:49.013Z,6.97
2023-09-08T00:18:16.304Z,6.50
2023-09-08T00:20:43.579Z,6.78
2023-09-08T00:23:10.913Z,6.70
2023-09-08T00:25:40.917Z,6.68
2023-09-08T00:28:08.196Z,6.47
2023-09-08T00:30:35.422Z,7.20
2023-09-08T00:33:02.961Z,6.90
2023-09-08T00:35:30.694Z,6.90
2023-09-08T00:37:58.216Z,6.25
2023-09-08T00:40:25.491Z,7.15
2023-09-08T00:42:54.318Z,6.95
2023-09-08T00:45:22.194Z,6.78
2023-09-08T00:47:49.686Z,7.28
2023-09-08T00:50:17.252Z,6.43
2023-09-08T00:52:44.529Z,7.32
2023-09-08T00:55:12.408Z,6.90
2023-09-08T00:57:39.773Z,7.72
2023-09-08T01:00:07.720Z,6.30
2023-09-08T01:02:35.210Z,6.57
2023-09-08T01:05:02.458Z,6.22
2023-09-08T01:07:31.845Z,8.18
2023-09-08T01:10:04.726Z,6.22
2023-09-08T01:12:32.033Z,6.78
2023-09-08T01:14:59.093Z,6.63
2023-09-08T01:17:27.193Z,6.90
2023-09-08T01:20:01.519Z,6.47
2023-09-08T01:22:28.993Z,6.50
2023-09-08T01:25:13.020Z,6.30
2023-09-08T01:27:45.012Z,6.82
2023-09-08T01:30:14.675Z,6.75
2023-09-08T01:32:42.867Z,6.57
2023-09-08T01:35:13.918Z,7.18
2023-09-08T01:37:43.223Z,6.60
2023-09-08T01:40:11.836Z,6.03
2023-09-08T01:42:40.189Z,6.32
2023-09-08T01:45:08.888Z,6.38
2023-09-08T01:47:36.560Z,6.47
2023-09-08T01:50:03.996Z,5.85
2023-09-08T01:52:34.081Z,5.88
2023-09-08T01:55:02.593Z,6.28
2023-09-08T01:57:32.326Z,6.82
2023-09-08T02:00:03.508Z,6.43
2023-09-08T02:02:39.857Z,7.15
2023-09-08T02:05:08.134Z,7.45
2023-09-08T02:07:35.431Z,6.65
2023-09-08T02:10:02.654Z,8.43
2023-09-08T02:12:30.215Z,9.20
2023-09-08T02:14:57.557Z,8.73
2023-09-08T02:17:24.770Z,8.93
2023-09-08T02:19:52.156Z,10.25
2023-09-08T02:22:19.865Z,9.13
2023-09-08T02:24:47.037Z,9.48
2023-09-08T02:27:14.254Z,8.82
2023-09-08T02:29:41.614Z,8.32
2023-09-08T02:32:09.030Z,7.95
2023-09-08T02:34:40.269Z,8.25
2023-09-08T02:37:08.491Z,8.43
2023-09-08T02:39:36.159Z,7.85
2023-09-08T02:42:03.553Z,8.77
2023-09-08T02:44:31.664Z,7.75
2023-09-08T02:46:58.883Z,8.13
2023-09-08T02:49:26.443Z,7.97
2023-09-08T02:51:54.304Z,8.23
2023-09-08T02:54:21.715Z,8.27
2023-09-08T02:56:48.824Z,8.23
2023-09-08T02:59:15.949Z,9.18
2023-09-08T03:01:43.670Z,8.93
2023-09-08T03:04:11.016Z,8.95
2023-09-08T03:06:38.240Z,9.15
2023-09-08T03:09:07.763Z,9.13
2023-09-08T03:11:35.549Z,9.77
2023-09-08T03:14:03.217Z,9.20
2023-09-08T03:16:31.876Z,8.93
2023-09-08T03:19:01.068Z,9.02
2023-09-08T03:21:28.352Z,8.50
2023-09-08T03:23:58.750Z,9.70
2023-09-08T03:26:26.244Z,9.05
2023-09-08T03:28:53.959Z,8.90
2023-09-08T03:31:21.344Z,8.05
2023-09-08T03:33:48.935Z,9.23
2023-09-08T03:36:16.970Z,8.85
2023-09-08T03:38:44.632Z,8.68
2023-09-08T03:41:12.587Z,8.15
2023-09-08T03:43:40.045Z,9.23
2023-09-08T03:46:07.690Z,8.35
2023-09-08T03:48:35.390Z,8.55
2023-09-08T03:51:02.846Z,8.13
2023-09-08T03:53:30.323Z,8.50
2023-09-08T03:55:57.759Z,8.93
2023-09-08T03:58:26.337Z,9.82
2023-09-08T04:00:54.223Z,9.65
2023-09-08T04:03:22.022Z,11.20
2023-09-08T04:05:50.408Z,9.82
2023-09-08T04:08:18.115Z,10.35
2023-09-08T04:10:45.470Z,10.00
2023-09-08T04:13:12.784Z,10.27
2023-09-08T04:15:40.251Z,10.27
2023-09-08T04:18:07.654Z,9.88
2023-09-08T04:20:35.264Z,8.88
2023-09-08T04:23:02.563Z,9.50
2023-09-08T04:25:30.001Z,10.52
2023-09-08T04:27:57.503Z,10.38
2023-09-08T04:30:25.168Z,10.27
2023-09-08T04:32:53.082Z,10.27
2023-09-08T04:35:24.952Z,10.45
2023-09-08T04:37:52.700Z,10.60
2023-09-08T04:40:20.741Z,10.63
2023-09-08T04:42:48.437Z,9.95
2023-09-08T04:45:21.270Z,10.35
2023-09-08T04:47:49.337Z,9.10
2023-09-08T04:50:19.777Z,9.00
2023-09-08T04:52:47.703Z,9.32
2023-09-08T04:55:16.566Z,9.82
2023-09-08T04:57:47.314Z,9.07
2023-09-08T05:00:15.284Z,8.98
2023-09-08T05:02:43.727Z,9.20
2023-09-08T05:05:14.976Z,8.95
2023-09-08T05:07:42.660Z,8.68
2023-09-08T05:10:10.750Z,8.95
2023-09-08T05:12:53.967Z,7.90
2023-09-08T05:15:22.932Z,8.48
2023-09-08T05:17:53.642Z,7.97
2023-09-08T05:20:26.275Z,8.30
2023-09-08T05:22:54.488Z,8.30
2023-09-08T05:25:22.243Z,7.82
2023-09-08T05:27:50.678Z,7.57
2023-09-08T05:30:19.501Z,7.47
2023-09-08T05:32:47.880Z,8.50
2023-09-08T05:35:18.476Z,7.90
2023-09-08T05:37:46.726Z,7.68
2023-09-08T05:40:15.178Z,7.57
2023-09-08T05:42:45.258Z,6.95
2023-09-08T05:45:13.538Z,7.80
2023-09-08T05:47:41.340Z,6.78
2023-09-08T05:50:12.768Z,7.13
2023-09-08T05:52:42.601Z,7.10
2023-09-08T05:55:20.588Z,7.90
2023-09-08T05:57:55.547Z,6.75
2023-09-08T06:00:24.887Z,7.55
2023-09-08T06:02:53.843Z,7.35
2023-09-08T06:05:22.396Z,7.18
2023-09-08T06:08:04.411Z,7.00
2023-09-08T06:10:35.346Z,6.22
2023-09-08T06:13:03.094Z,6.55
2023-09-08T06:15:31.940Z,6.32
2023-09-08T06:18:04.292Z,7.22
2023-09-08T06:20:33.082Z,6.10
2023-09-08T06:23:01.313Z,6.13
2023-09-08T06:25:29.978Z,6.43
2023-09-08T06:27:59.039Z,7.68
2023-09-08T06:30:29.880Z,6.18
2023-09-08T06:32:57.543Z,6.88
2023-09-08T06:35:27.919Z,6.07
2023-09-08T06:37:56.026Z,6.40
2023-09-08T06:40:23.566Z,6.40
2023-09-08T06:42:50.819Z,6.03
2023-09-08T06:45:27.647Z,6.47
2023-09-08T06:47:56.688Z,6.68
2023-09-08T06:50:25.850Z,6.40
2023-09-08T06:52:54.574Z,6.40
2023-09-08T06:55:22.200Z,6.97
2023-09-08T06:57:52.245Z,6.63
2023-09-08T07:00:21.966Z,8.00
2023-09-08T07:02:50.916Z,6.80
2023-09-08T07:05:19.395Z,6.90
2023-09-08T07:07:50.921Z,6.32
2023-09-08T07:10:18.450Z,5.88
2023-09-08T07:12:46.836Z,6.38
2023-09-08T07:15:16.851Z,6.40
2023-09-08T07:17:44.569Z,6.85
2023-09-08T07:20:12.396Z,6.20
2023-09-08T07:22:41.631Z,6.60
2023-09-08T07:25:11.293Z,7.05
2023-09-08T07:27:38.819Z,6.45
2023-09-08T07:30:07.763Z,6.90
2023-09-08T07:32:35.955Z,6.15
2023-09-08T07:35:03.667Z,7.20
2023-09-08T07:37:31.323Z,6.28
2023-09-08T07:39:59.394Z,5.93
2023-09-08T07:42:27.727Z,6.43
2023-09-08T07:44:55.341Z,5.70
2023-09-08T07:47:23.903Z,6.50
2023-09-08T07:49:51.290Z,6.63
2023-09-08T07:52:19.157Z,6.38
2023-09-08T07:54:46.840Z,6.10
2023-09-08T07:57:14.357Z,6.72
2023-09-08T07:59:43.222Z,6.25
2023-09-08T08:02:12.890Z,6.68
2023-09-08T08:04:40.822Z,6.32
2023-09-08T08:07:08.728Z,6.18
2023-09-08T08:09:36.847Z,6.22
2023-09-08T08:12:05.587Z,7.00
2023-09-08T08:14:33.746Z,6.97
2023-09-08T08:17:03.794Z,6.43
2023-09-08T08:19:34.792Z,6.78
2023-09-08T08:22:05.046Z,6.35
2023-09-08T08:24:33.334Z,6.90
2023-09-08T08:27:04.821Z,6.22
2023-09-08T08:29:39.840Z,6.22
2023-09-08T08:32:08.010Z,5.93
2023-09-08T08:34:38.886Z,6.03
2023-09-08T08:37:07.220Z,5.97
2023-09-08T08:39:36.516Z,5.25
2023-09-08T08:42:20.617Z,6.05
2023-09-08T08:44:57.651Z,5.75
2023-09-08T08:47:40.371Z,5.70
2023-09-08T08:50:12.556Z,5.35
2023-09-08T08:52:41.308Z,5.70
2023-09-08T08:55:17.410Z,6.43
2023-09-08T08:57:54.949Z,5.20
2023-09-08T09:00:27.427Z,5.38
2023-09-08T09:03:11.758Z,5.45
2023-09-08T09:05:48.862Z,5.32
2023-09-08T09:08:19.852Z,4.57
2023-09-08T09:10:48.313Z,5.32
2023-09-08T09:13:16.009Z,5.43
2023-09-08T09:15:49.065Z,6.22
2023-09-08T09:18:17.423Z,4.75
2023-09-08T09:21:00.949Z,4.68
2023-09-08T09:23:38.142Z,4.43
2023-09-08T09:26:06.361Z,4.53
2023-09-08T09:28:34.719Z,5.03
2023-09-08T09:31:03.664Z,4.53
2023-09-08T09:33:38.105Z,5.15
2023-09-08T09:36:08.971Z,4.90
2023-09-08T09:38:37.304Z,5.25
2023-09-08T09:41:06.048Z,5.00
2023-09-08T09:43:35.584Z,4.93
2023-09-08T09:46:03.661Z,5.47
2023-09-08T09:48:35.551Z,5.07
2023-09-08T09:51:21.351Z,4.50
2023-09-08T09:53:52.620Z,4.97
2023-09-08T09:56:22.058Z,4.95
2023-09-08T09:58:52.450Z,4.72
2023-09-08T10:01:20.993Z,5.72
2023-09-08T10:03:50.379Z,5.28
2023-09-08T10:06:21.824Z,5.10
2023-09-08T10:08:50.238Z,8.25
2023-09-08T10:11:22.922Z,4.72
2023-09-08T10:13:58.910Z,6.03
2023-09-08T10:16:32.421Z,4.28
2023-09-08T10:19:01.324Z,4.22
2023-09-08T10:21:32.109Z,4.78
2023-09-08T10:24:10.691Z,4.60
2023-09-08T10:26:51.170Z,6.95
2023-09-08T10:29:22.830Z,3.60
2023-09-08T10:31:51.250Z,3.72
2023-09-08T10:34:22.983Z,4.38
2023-09-08T10:36:50.561Z,5.13
2023-09-08T10:39:47.013Z,3.90
2023-09-08T10:42:22.784Z,3.95
2023-09-08T10:44:52.868Z,5.25
2023-09-08T10:47:28.226Z,5.38
2023-09-08T10:50:01.646Z,3.58
2023-09-08T10:52:29.278Z,4.85
2023-09-08T10:54:59.656Z,3.33
2023-09-08T10:57:27.142Z,3.05
2023-09-08T11:00:02.132Z,4.10
2023-09-08T11:02:57.837Z,4.30
2023-09-08T11:05:25.403Z,4.15
2023-09-08T11:07:55.820Z,3.85
2023-09-08T11:10:24.818Z,4.75
2023-09-08T11:12:52.964Z,3.35
2023-09-08T11:15:24.032Z,3.75
2023-09-08T11:17:53.933Z,3.78
2023-09-08T11:20:29.130Z,5.70
2023-09-08T11:23:03.969Z,3.45
2023-09-08T11:25:31.533Z,3.20
2023-09-08T11:28:00.885Z,4.35
2023-09-08T11:30:29.357Z,2.97
2023-09-08T11:33:00.212Z,3.55
2023-09-08T11:35:28.757Z,3.42
2023-09-08T11:38:03.119Z,3.00
2023-09-08T11:40:37.024Z,3.33
2023-09-08T11:43:07.031Z,2.75
2023-09-08T11:45:42.129Z,3.13
2023-09-08T11:48:11.719Z,2.60
2023-09-08T11:50:39.034Z,3.20
2023-09-08T11:53:11.868Z,3.10
2023-09-08T11:55:39.769Z,2.72
2023-09-08T11:58:07.458Z,2.95
2023-09-08T12:00:36.027Z,3.40
2023-09-08T12:03:14.414Z,3.72
2023-09-08T12:05:43.583Z,3.03
2023-09-08T12:08:11.181Z,3.38
2023-09-08T12:10:57.519Z,3.20
2023-09-08T12:13:27.697Z,3.42
2023-09-08T12:15:55.045Z,3.63
2023-09-08T12:18:40.311Z,5.70
2023-09-08T12:21:08.003Z,3.97
2023-09-08T12:23:56.407Z,3.97
2023-09-08T12:26:28.337Z,5.40
2023-09-08T12:28:55.629Z,4.13
2023-09-08T12:31:27.085Z,5.88
2023-09-08T12:33:54.606Z,6.00
2023-09-08T12:36:22.101Z,4.78
2023-09-08T12:38:51.798Z,5.28
2023-09-08T12:41:21.746Z,3.63
2023-09-08T12:43:55.281Z,3.80
2023-09-08T12:46:24.389Z,3.97
2023-09-08T12:48:57.913Z,3.80
2023-09-08T12:51:25.529Z,4.18
2023-09-08T12:53:55.874Z,3.75
2023-09-08T12:56:26.214Z,4.10
2023-09-08T12:58:56.577Z,4.40
2023-09-08T13:01:25.729Z,3.40
2023-09-08T13:04:01.243Z,3.65
2023-09-08T13:06:31.665Z,3.33
2023-09-08T13:09:06.449Z,3.60
2023-09-08T13:11:34.093Z,3.90
2023-09-08T13:14:06.658Z,3.50
2023-09-08T13:16:35.348Z,3.72
2023-09-08T13:19:05.083Z,3.80
2023-09-08T13:21:38.863Z,4.07
2023-09-08T13:24:09.390Z,4.03
2023-09-08T13:26:39.312Z,4.05
2023-09-08T13:29:21.449Z,3.80
2023-09-08T13:32:03.958Z,3.80
2023-09-08T13:34:40.205Z,3.40
2023-09-08T13:37:12.126Z,3.95
2023-09-08T13:39:45.442Z,3.83
2023-09-08T13:42:30.142Z,3.75
2023-09-08T13:45:04.895Z,4.15
2023-09-08T13:47:56.842Z,4.00
2023-09-08T13:50:27.259Z,3.63
2023-09-08T13:53:04.417Z,3.92
2023-09-08T13:55:43.924Z,3.65
2023-09-08T13:58:15.374Z,4.25
2023-09-08T14:00:46.774Z,4.43
2023-09-08T14:05:55.111Z,4.60
2023-09-08T14:08:51.909Z,3.97
2023-09-08T14:11:42.466Z,4.45
2023-09-08T14:14:20.433Z,4.75
2023-09-08T14:16:49.249Z,4.25
2023-09-08T14:19:16.757Z,4.72
2023-09-08T14:21:49.261Z,4.90
2023-09-08T14:24:35.601Z,4.40
2023-09-08T14:27:07.258Z,4.28
2023-09-08T14:29:40.147Z,4.80
2023-09-08T14:32:10.816Z,4.10
2023-09-08T14:34:41.057Z,4.30
2023-09-08T14:37:13.296Z,4.40
2023-09-08T14:39:41.437Z,4.03
2023-09-08T14:42:09.956Z,3.95
2023-09-08T14:44:39.737Z,4.47
2023-09-08T14:47:07.375Z,3.83
2023-09-08T14:49:41.514Z,4.63
2023-09-08T14:52:13.862Z,4.00
2023-09-08T14:54:48.130Z,5.32
2023-09-08T14:57:16.028Z,4.35
2023-09-08T14:59:43.717Z,4.90
2023-09-08T15:02:28.058Z,4.03
2023-09-08T15:05:07.917Z,4.85
2023-09-08T15:07:45.044Z,4.07
2023-09-08T15:10:21.879Z,4.20
2023-09-08T15:12:52.144Z,4.20
2023-09-08T15:15:25.174Z,5.20
2023-09-08T15:18:04.616Z,4.18
2023-09-08T15:20:34.730Z,4.03
2023-09-08T15:23:11.992Z,4.70
2023-09-08T15:25:42.462Z,4.35
2023-09-08T15:28:19.868Z,4.03
2023-09-08T15:30:57.354Z,3.95
2023-09-08T15:33:29.753Z,3.97
2023-09-08T15:35:59.928Z,3.90
2023-09-08T15:38:35.707Z,4.30
2023-09-08T15:43:46.513Z,4.07
2023-09-08T15:46:14.663Z,4.72
2023-09-08T15:48:45.465Z,4.10
2023-09-08T15:51:14.364Z,4.20
2023-09-08T15:53:45.706Z,4.53
2023-09-08T15:56:15.025Z,4.70
2023-09-08T15:58:48.653Z,4.00
2023-09-08T16:01:20.109Z,4.38
2023-09-08T16:03:53.475Z,3.85
2023-09-08T16:08:51.635Z,4.40
2023-09-08T16:11:19.193Z,4.38
2023-09-08T16:13:48.058Z,4.38
2023-09-08T16:16:27.152Z,4.82
2023-09-08T16:19:00.412Z,4.43
2023-09-08T16:21:28.073Z,4.63
2023-09-08T16:24:02.497Z,4.72
2023-09-08T16:26:30.297Z,4.90
2023-09-08T16:29:00.495Z,4.90
2023-09-08T16:31:28.666Z,4.43
2023-09-08T16:33:56.082Z,4.18
2023-09-08T16:36:24.791Z,4.47
2023-09-08T16:38:52.071Z,3.88
2023-09-08T16:41:19.483Z,4.18
2023-09-08T16:43:50.586Z,4.30
2023-09-08T16:46:18.673Z,4.50
2023-09-08T16:48:46.363Z,4.80
2023-09-08T16:51:18.732Z,4.65
2023-09-08T16:53:46.332Z,4.38
2023-09-08T16:56:13.844Z,4.55
2023-09-08T16:58:41.253Z,4.80
2023-09-08T17:01:08.726Z,3.88
2023-09-08T17:03:36.355Z,3.80
2023-09-08T17:06:04.207Z,3.83
2023-09-08T17:08:31.779Z,4.75
2023-09-08T17:11:09.344Z,4.78
2023-09-08T17:13:37.320Z,4.70
2023-09-08T17:16:05.274Z,4.78
2023-09-08T17:18:33.252Z,3.83
2023-09-08T17:21:01.909Z,4.15
2023-09-08T17:23:32.664Z,5.03
2023-09-08T17:26:07.746Z,4.75
2023-09-08T17:28:37.685Z,4.75
2023-09-08T17:31:12.598Z,4.75
2023-09-08T17:33:48.221Z,4.53
2023-09-08T17:36:18.576Z,4.47
2023-09-08T17:38:46.508Z,4.70
2023-09-08T17:41:16.143Z,4.10
2023-09-08T17:43:44.465Z,4.90
2023-09-08T17:46:14.215Z,5.63
2023-09-08T17:48:45.206Z,5.25
2023-09-08T17:51:18.344Z,4.45
2023-09-08T17:53:50.804Z,4.93
2023-09-08T17:56:23.577Z,4.43
2023-09-08T17:58:58.698Z,4.85
2023-09-08T18:04:01.133Z,4.90
2023-09-08T18:06:29.829Z,4.78
2023-09-08T18:08:58.774Z,4.80
2023-09-08T18:11:32.622Z,5.07
2023-09-08T18:14:02.080Z,5.32
2023-09-08T18:16:36.844Z,6.18
2023-09-08T18:19:06.144Z,5.00
2023-09-08T18:21:36.710Z,5.35
2023-09-08T18:24:05.274Z,5.45
2023-09-08T18:26:38.967Z,5.57
2023-09-08T18:29:17.371Z,5.72
2023-09-08T18:31:45.518Z,5.43
2023-09-08T18:34:17.503Z,5.53
2023-09-08T18:36:46.201Z,5.20
2023-09-08T18:39:17.463Z,5.80
2023-09-08T18:41:48.086Z,6.15
2023-09-08T18:44:17.411Z,8.40
2023-09-08T18:46:46.179Z,7.72
2023-09-08T18:49:14.776Z,7.22
2023-09-08T18:51:42.631Z,8.02
2023-09-08T18:54:14.139Z,7.72
2023-09-08T18:56:42.935Z,5.85
2023-09-08T18:59:11.150Z,6.88
2023-09-08T19:01:39.612Z,5.70
2023-09-08T19:04:09.763Z,6.03
2023-09-08T19:06:40.870Z,5.35
2023-09-08T19:09:09.974Z,4.93
2023-09-08T19:11:37.906Z,5.97
2023-09-08T19:14:07.522Z,6.20
2023-09-08T19:16:39.394Z,6.95
2023-09-08T19:19:07.235Z,15.38
2023-09-08T19:21:39.577Z,7.35
2023-09-08T19:24:07.665Z,6.38
2023-09-08T19:26:37.333Z,4.45
2023-09-08T19:29:09.727Z,5.30
2023-09-08T19:31:38.183Z,4.93
2023-09-08T19:34:11.405Z,5.57
2023-09-08T19:36:42.959Z,5.55
2023-09-08T19:39:10.833Z,4.85
2023-09-08T19:41:41.097Z,5.55
2023-09-08T19:44:12.577Z,5.72
2023-09-08T19:46:42.256Z,6.05
2023-09-08T19:49:11.713Z,5.22
2023-09-08T19:51:42.380Z,5.03
2023-09-08T19:54:13.757Z,6.60
2023-09-08T19:56:42.069Z,5.40
2023-09-08T19:59:11.963Z,6.15
2023-09-08T20:01:44.792Z,5.93
2023-09-08T20:04:17.659Z,6.05
2023-09-08T20:09:19.544Z,6.25
2023-09-08T20:11:48.566Z,6.47
2023-09-08T20:14:20.894Z,7.10
2023-09-08T20:16:53.592Z,7.03
2023-09-08T20:19:22.163Z,6.00
2023-09-08T20:21:53.711Z,5.82
2023-09-08T20:24:21.187Z,6.38
2023-09-08T20:26:54.074Z,5.72
2023-09-08T20:29:21.704Z,6.13
2023-09-08T20:31:50.541Z,6.20
2023-09-08T20:34:18.063Z,6.63
2023-09-08T20:36:45.950Z,5.45
2023-09-08T20:39:14.073Z,5.95
2023-09-08T20:41:47.614Z,5.30
2023-09-08T20:44:18.340Z,5.20
2023-09-08T20:46:47.905Z,7.78
2023-09-08T20:49:15.197Z,7.15
2023-09-08T20:51:42.592Z,7.20
2023-09-08T20:54:09.992Z,7.07
2023-09-08T20:56:37.567Z,8.60
2023-09-08T20:59:06.128Z,8.52
2023-09-08T21:01:33.721Z,8.43
2023-09-08T21:04:01.600Z,7.72
2023-09-08T21:06:30.265Z,8.13
2023-09-08T21:08:57.581Z,8.00
2023-09-08T21:11:25.868Z,6.85
2023-09-08T21:13:53.543Z,7.60
2023-09-08T21:16:21.079Z,7.25
2023-09-08T21:18:51.808Z,7.40
2023-09-08T21:21:19.546Z,7.25
2023-09-08T21:23:46.905Z,7.47
2023-09-08T21:26:20.452Z,7.40
2023-09-08T21:28:48.619Z,7.53
2023-09-08T21:31:19.850Z,6.82
2023-09-08T21:33:50.681Z,8.02
2023-09-08T21:36:19.520Z,8.38
2023-09-08T21:38:46.847Z,6.82
2023-09-08T21:41:14.835Z,7.43
2023-09-08T21:43:42.241Z,8.85
2023-09-08T21:46:11.170Z,7.38
2023-09-08T21:48:40.190Z,6.80
2023-09-08T21:51:07.941Z,7.90
2023-09-08T21:53:35.197Z,7.75
2023-09-08T21:56:02.463Z,8.20
2023-09-08T21:58:30.153Z,8.52
2023-09-08T22:00:57.545Z,9.23
2023-09-08T22:03:24.976Z,7.63
2023-09-08T22:05:52.660Z,9.35
2023-09-08T22:08:20.054Z,9.10
2023-09-08T22:10:47.725Z,7.95
2023-09-08T22:13:14.933Z,8.45
2023-09-08T22:15:42.294Z,7.28
2023-09-08T22:18:11.160Z,8.70
2023-09-08T22:20:38.926Z,9.35
2023-09-08T22:23:06.117Z,8.57
2023-09-08T22:25:35.233Z,8.50
2023-09-08T22:28:02.733Z,10.32
2023-09-08T22:30:30.273Z,9.15
2023-09-08T22:32:57.830Z,9.70
2023-09-08T22:35:25.139Z,8.90
2023-09-08T22:37:52.935Z,9.07
2023-09-08T22:40:20.497Z,8.75
2023-09-08T22:42:47.867Z,8.10
2023-09-08T22:45:15.213Z,8.68
2023-09-08T22:47:42.748Z,8.88
2023-09-08T22:50:13.577Z,9.18
2023-09-08T22:52:44.141Z,9.20
2023-09-08T22:55:23.430Z,8.52
2023-09-08T22:57:52.133Z,9.43
2023-09-08T23:00:19.485Z,9.32
2023-09-08T23:02:48.309Z,9.82
2023-09-08T23:05:16.020Z,9.20
2023-09-08T23:07:46.782Z,8.73
2023-09-08T23:10:14.268Z,9.50
2023-09-08T23:12:42.002Z,9.50
2023-09-08T23:15:11.304Z,9.30
2023-09-08T23:17:39.248Z,9.07
2023-09-08T23:20:16.951Z,10.25
2023-09-08T23:22:45.288Z,9.73
2023-09-08T23:25:12.762Z,10.85
2023-09-08T23:27:39.993Z,10.32
2023-09-08T23:30:08.055Z,9.60
2023-09-08T23:32:35.442Z,9.82
2023-09-08T23:35:05.176Z,8.80
2023-09-08T23:37:36.512Z,9.65
2023-09-08T23:40:06.292Z,10.38
2023-09-08T23:42:33.728Z,9.85
2023-09-08T23:45:01.021Z,10.95
2023-09-08T23:47:28.422Z,10.70
2023-09-08T23:49:55.750Z,10.50
2023-09-08T23:52:22.886Z,10.18
2023-09-08T23:54:50.249Z,10.25
2023-09-08T23:57:17.504Z,11.07
2023-09-08T23:59:45.346Z,11.40
